WetterOnline ( https://www.wetteronline.de )

Wetter aktuell Flintbek

Aktuelles Wetter: Dörnick (28m)

6-stündlich | Neueste Meldungen
Ortszeit Temperatur Wetter
Sa, 06.06. 20:00 12.0° C wolkig
Sa, 06.06. 14:00 15.0° C leicht bewölkt
Sa, 06.06. 8:00 9.1° C leicht bewölkt
Sa, 06.06. 2:00 9.0° C bewölkt
Fr, 05.06. 20:00 10.4° C leichter Regen
Fr, 05.06. 14:00 14.0° C bewölkt
Fr, 05.06. 8:00 10.6° C wolkig
Fr, 05.06. 2:00 11.1° C bewölkt
Ortszeit Temperatur Wetter
Sa, 06.06. 23:30 10.6° C wolkenlos
Sa, 06.06. 23:20 10.6° C wolkenlos
Sa, 06.06. 23:10 10.5° C wolkenlos
Sa, 06.06. 23:00 10.7° C fast wolkenlos
Sa, 06.06. 22:50 10.7° C fast wolkenlos
Sa, 06.06. 22:40 10.6° C leicht bewölkt
Sa, 06.06. 22:30 10.8° C wolkig
Sa, 06.06. 22:00 10.9° C fast wolkenlos
Sa, 06.06. 21:30 11.2° C fast wolkenlos
Sa, 06.06. 21:00 11.0° C leicht bewölkt
Sa, 06.06. 20:30 11.4° C fast wolkenlos
Ortszeit Relative Feuchte Sichtweite
Sa, 06.06. 20:00 74% 60 km
Sa, 06.06. 14:00 51% 40 km
Sa, 06.06. 8:00 82% 35 km
Sa, 06.06. 2:00 88% 60 km
Fr, 05.06. 20:00 90% 6 km
Fr, 05.06. 14:00 56% >70 km
Fr, 05.06. 8:00 81% 40 km
Fr, 05.06. 2:00 90% 45 km
Ortszeit Relative Feuchte Sichtweite
Sa, 06.06. 23:30 86% 45 km
Sa, 06.06. 23:20 86% -
Sa, 06.06. 23:10 86% -
Sa, 06.06. 23:00 85% 50 km
Sa, 06.06. 22:50 85% -
Sa, 06.06. 22:40 85% -
Sa, 06.06. 22:30 85% 60 km
Sa, 06.06. 22:00 84% 65 km
Sa, 06.06. 21:30 81% 65 km
Sa, 06.06. 21:00 81% 50 km
Sa, 06.06. 20:30 77% 65 km
Ortszeit Niederschlagsmenge Niederschlagsart
Sa, 06.06. 20:00 0.4 l/m2 in 12 Std. Regen
Sa, 06.06. 14:00 0.1 l/m2 in 6 Std. Regen
Sa, 06.06. 8:00 9 l/m2 in 12 Std. Regen
Sa, 06.06. 2:00 7 l/m2 in 6 Std. Regen
Fr, 05.06. 20:00 0.7 l/m2 in 12 Std. Regen
Fr, 05.06. 14:00 0.0 l/m2 in 6 Std. -
Fr, 05.06. 8:00 0.3 l/m2 in 12 Std. Regen
Fr, 05.06. 2:00 0.1 l/m2 in 6 Std. Regen
Ortszeit Niederschlagsmenge Niederschlagsart
Sa, 06.06. 23:30 0.0 l/m2 in 1 Std. -
Sa, 06.06. 23:20 keine Meldung -
Sa, 06.06. 23:10 keine Meldung -
Sa, 06.06. 23:00 0.0 l/m2 in 1 Std. -
Sa, 06.06. 22:50 keine Meldung -
Sa, 06.06. 22:40 keine Meldung -
Sa, 06.06. 22:30 0.0 l/m2 in 1 Std. -
Sa, 06.06. 22:00 0.0 l/m2 in 1 Std. -
Sa, 06.06. 21:30 0.0 l/m2 in 1 Std. -
Sa, 06.06. 21:00 0.0 l/m2 in 1 Std. -
Sa, 06.06. 20:30 0.0 l/m2 in 1 Std. -
Ortszeit Stärke Spitze Richtung
km/h Bft. km/h Grad Sektor
Sa, 06.06. 20:00 9 2 57 200° S
Sa, 06.06. 14:00 25 4 47 240° SW
Sa, 06.06. 8:00 24 4 44 220° SW
Sa, 06.06. 2:00 24 4 46 240° SW
Fr, 05.06. 20:00 30 5 63 200° S
Fr, 05.06. 14:00 17 3 35 230° SW
Fr, 05.06. 8:00 18 3 29 230° SW
Fr, 05.06. 2:00 15 3 30 250° W
Ortszeit Stärke Spitze Richtung
km/h Bft. km/h Grad Sektor
Sa, 06.06. 23:30 9 2 17 150° SO
Sa, 06.06. 23:20 9 2 - 150° SO
Sa, 06.06. 23:10 7 2 - 160° S
Sa, 06.06. 23:00 9 2 17 150° SO
Sa, 06.06. 22:50 9 2 - 150° SO
Sa, 06.06. 22:40 7 2 - 160° S
Sa, 06.06. 22:30 11 2 18 170° S
Sa, 06.06. 22:00 11 2 18 170° S
Sa, 06.06. 21:30 11 2 18 170° S
Sa, 06.06. 21:00 11 2 20 190° S
Sa, 06.06. 20:30 13 3 20 200° S
Ortszeit Untergrenze Bedeckung Gattung
total tief tief mittel hoch
Sa, 06.06. 20:00 1800 m 8/8 1/8 - - -
Sa, 06.06. 14:00 1500 m 4/8 4/8 - - -
Sa, 06.06. 8:00 390 m 3/8 3/8 - - -
Sa, 06.06. 2:00 690 m 8/8 4/8 - - -
Fr, 05.06. 20:00 1140 m 8/8 8/8 - - -
Fr, 05.06. 14:00 1800 m 7/8 7/8 - - -
Fr, 05.06. 8:00 540 m 7/8 5/8 - - -
Fr, 05.06. 2:00 480 m 8/8 4/8 - - -
Ortszeit Bedeckungsgrad in Achtel und Wolkenuntergrenze
Sa, 06.06. 23:30 keine Wolken
Sa, 06.06. 23:20 keine Wolken
Sa, 06.06. 23:10 keine Wolken
Sa, 06.06. 23:00 1(2700m)
Sa, 06.06. 22:50 1(2700m)
Sa, 06.06. 22:40 3(2700m)
Sa, 06.06. 22:30 1(1500m) 5(2700m)
Sa, 06.06. 22:00 1(1800m)
Sa, 06.06. 21:30 1(2700m)
Sa, 06.06. 21:00 3(3000m)
Sa, 06.06. 20:30 1(3600m)
Ortszeit Luftdruck NN (hPa) Tendenz (hPa in 3 Std.)
Sa, 06.06. 20:00 1001 + 1,3
Sa, 06.06. 14:00 998 + 1,5
Sa, 06.06. 8:00 995 + 1,4
Sa, 06.06. 2:00 992 + 2,2
Fr, 05.06. 20:00 991 - 0,8
Fr, 05.06. 14:00 993 - 0,6
Fr, 05.06. 8:00 993 + 0,9
Fr, 05.06. 2:00 992 + 0,1
Ortszeit Luftdruck NN (hPa) Tendenz (hPa in 3 Std.)
Sa, 06.06. 23:30 1002 + 0,7
Sa, 06.06. 23:20 1002 keine Meldung
Sa, 06.06. 23:10 1002 keine Meldung
Sa, 06.06. 23:00 1002 + 1,1
Sa, 06.06. 22:50 1002 keine Meldung
Sa, 06.06. 22:40 1002 keine Meldung
Sa, 06.06. 22:30 1002 + 0,9
Sa, 06.06. 22:00 1002 + 1,4
Sa, 06.06. 21:30 1002 + 1,4
Sa, 06.06. 21:00 1002 + 1,3
Sa, 06.06. 20:30 1001 + 1,2
Ortszeit Schneehöhe (cm)
Sa, 06.06. 20:00 -
Sa, 06.06. 14:00 -
Sa, 06.06. 8:00 -
Sa, 06.06. 2:00 -
Fr, 05.06. 20:00 -
Fr, 05.06. 14:00 -
Fr, 05.06. 8:00 -
Fr, 05.06. 2:00 -
Ortszeit Schneehöhe (cm)
Sa, 06.06. 23:30 -
Sa, 06.06. 23:20 -
Sa, 06.06. 23:10 -
Sa, 06.06. 23:00 -
Sa, 06.06. 22:50 -
Sa, 06.06. 22:40 -
Sa, 06.06. 22:30 -
Sa, 06.06. 22:00 -
Sa, 06.06. 21:30 -
Sa, 06.06. 21:00 -
Sa, 06.06. 20:30 -
Link zu dieser Seite / Seite empfehlen

Das Wetter in ...